Syracuse Hancock International Airport
KSYR : now visible

Airfield :











YOU CAN JOIN US ON...

 
LOGIN :

Register | Disclaimer

   EN    FR    IT 

 









Legend :    VFR   Marginal VFR   IFR   Intensive IFR   Very Intensive IFR
Visi :
Ceiling :
>= 8 km
>= 3000ft
5 to 8 km
1000 to 3000 ft
1500m to 5 km
500 to 1000 ft
800 to 1500m
200 to 500 ft
< 800m
< 200 ft
Symbols :   Thunderstorms  Fog  Heavy snow  Heavy precipitations  Wind > 20 kt






- Airport Elevation : 421 ft
- IATA code : SYR


KSYR - Syracuse Hancock International

CURRENT METAR :
  • 050654Z 21007KT 10SM BKN100 BKN120 21/18 A2988 RMK AO2 SLP113 T02060178

EXPIRED METARs :
  • 050554Z 19008KT 10SM SCT120 BKN160 21/18 A2987 RMK AO2 SLP109 60002 T02110183 10217 20206 51008
  • 050454Z 20007KT 10SM FEW038 FEW120 21/18 A2986 RMK AO2 SLP107 T02060183 402330206

TAF KSYR
Valid from the 05 at 06:00 until the 06 at 06:00 UTC


050539Z 0506/0606 23005KT P6SM FEW030 BKN100
TEMPO 0509/0513 BKN030
FM051300 25010KT P6SM BKN035
FM051700 27010KT P6SM SCT045
FM060000 25003KT P6SM FEW110
KZBW FIR / North America



MET'MAP, your aeronautical weather chart ! - Copyright ORBIFLY December 2007 - Disclaimer

ORBIFLY MET'MAP TEAM :

Programming & Development : Alexandra Zaïnal
Concept & original design : Baudouin d'Aumeries
Assistance for programming : Marc-Olivier Méhu
Technical & hardware support : Manuel Goepfert

Contact : metmap@orbifly.com




SOURCES & CREDITS :

   NOAA       Earth
Advisory